Time;durP1;ratioP1;P1;durP2;ratioP2;P2;SDS_P1;SDS_P2;PMS_P1;PMS_P2;Temp;Humidity;BMP_temperature;BMP_pressure;BME280_temperature;BME280_humidity;BME280_pressure;Samples;Min_cycle;Max_cycle;Signal;HPM_P1;HPM_P2
2022/09/24 00:00:22;;;;;;;23.75;15.75;;;;;;;13.64;96.34;101378.41;5030504;28;20026;-73
2022/09/24 00:02:48;;;;;;;18.93;14.00;;;;;;;13.70;95.21;101383.94;5030556;28;20021;-73
2022/09/24 00:05:13;;;;;;;19.70;14.37;;;;;;;13.59;95.46;101370.78;5030667;28;20041;-72
2022/09/24 00:07:38;;;;;;;19.60;13.80;;;;;;;13.59;96.56;101378.16;5030950;28;20033;-71
2022/09/24 00:10:04;;;;;;;23.17;14.43;;;;;;;13.59;96.52;101368.00;5030681;28;20029;-73
2022/09/24 00:12:30;;;;;;;21.13;13.90;;;;;;;13.51;96.53;101376.44;5030427;28;20384;-72
2022/09/24 00:14:55;;;;;;;18.97;13.50;;;;;;;13.49;96.13;101369.41;5030317;28;20029;-73
2022/09/24 00:17:20;;;;;;;20.73;13.53;;;;;;;13.54;96.35;101373.28;5030112;28;20048;-72
2022/09/24 00:19:45;;;;;;;19.77;13.83;;;;;;;13.51;96.22;101367.34;5030303;28;20052;-72
2022/09/24 00:22:11;;;;;;;19.33;13.47;;;;;;;13.54;96.41;101361.41;5030240;28;20056;-73
2022/09/24 00:27:20;;;;;;;18.70;13.68;;;;;;;13.48;95.95;101354.84;5030246;28;20044;-72
2022/09/24 00:29:46;;;;;;;20.47;14.23;;;;;;;13.46;96.23;101351.41;5030132;28;20034;-73
2022/09/24 00:32:12;;;;;;;17.40;13.13;;;;;;;13.45;96.13;101352.47;5030159;28;20369;-73
2022/09/24 00:34:37;;;;;;;21.27;15.35;;;;;;;13.45;96.59;101348.88;5032792;28;20082;-73
2022/09/24 00:37:03;;;;;;;20.33;14.30;;;;;;;13.47;96.38;101355.03;5032207;28;20037;-73
2022/09/24 00:39:28;;;;;;;20.00;15.27;;;;;;;13.48;95.68;101351.22;5032069;28;20029;-73
2022/09/24 00:41:54;;;;;;;19.43;14.83;;;;;;;13.44;96.30;101344.44;5033476;28;20037;-74
2022/09/24 00:44:41;;;;;;;19.20;14.52;;;;;;;13.49;95.67;101347.41;5033424;28;20128;-73
2022/09/24 00:47:36;;;;;;;19.30;13.40;;;;;;;13.42;95.99;101343.78;5032138;28;20043;-73
2022/09/24 00:50:21;;;;;;;24.08;13.93;;;;;;;13.52;95.31;101342.38;5033354;28;20221;-72
2022/09/24 00:52:54;;;;;;;20.00;14.15;;;;;;;13.44;95.98;101334.25;5033201;28;20025;-73
2022/09/24 00:55:22;;;;;;;17.27;13.10;;;;;;;13.46;95.49;101336.81;5033258;28;20048;-73
2022/09/24 00:57:51;;;;;;;17.40;13.38;;;;;;;13.34;96.05;101330.19;5033160;28;20071;-73
2022/09/24 01:00:18;;;;;;;20.92;12.93;;;;;;;13.47;95.47;101335.75;5033455;28;20083;-73
2022/09/24 01:02:46;;;;;;;18.52;13.52;;;;;;;13.43;95.66;101334.47;5033034;28;20036;-74
2022/09/24 01:05:11;;;;;;;18.80;12.88;;;;;;;13.39;95.43;101328.53;5036754;28;20413;-73
2022/09/24 01:07:36;;;;;;;16.67;12.20;;;;;;;13.41;95.80;101320.94;5052953;28;20492;-73
2022/09/24 01:10:03;;;;;;;17.47;12.50;;;;;;;13.45;95.42;101322.19;5052915;28;20065;-73
2022/09/24 01:12:53;;;;;;;16.85;13.02;;;;;;;13.49;95.04;101326.25;5053396;28;20025;-73
2022/09/24 01:15:31;;;;;;;20.02;12.95;;;;;;;13.50;95.51;101321.59;5053020;28;20119;-73
2022/09/24 01:18:14;;;;;;;16.20;12.75;;;;;;;13.47;95.69;101328.38;5052988;28;20515;-72
2022/09/24 01:20:45;;;;;;;19.55;13.27;;;;;;;13.51;95.43;101324.13;5052751;28;20333;-72
2022/09/24 01:23:11;;;;;;;19.15;13.40;;;;;;;13.50;95.45;101316.94;5052628;28;20037;-72
2022/09/24 01:25:58;;;;;;;19.70;14.13;;;;;;;13.49;95.68;101317.13;5052907;28;20397;-72
2022/09/24 01:28:50;;;;;;;20.33;13.40;;;;;;;13.47;95.85;101316.50;5052721;28;20094;-72
2022/09/24 01:31:24;;;;;;;20.95;13.85;;;;;;;13.49;95.81;101315.25;5052717;28;20021;-73
2022/09/24 01:33:54;;;;;;;21.92;13.05;;;;;;;13.51;95.98;101312.28;5052567;28;20147;-73
2022/09/24 01:36:21;;;;;;;19.23;13.35;;;;;;;13.46;96.16;101310.13;5052471;28;20439;-73
2022/09/24 01:38:51;;;;;;;19.85;13.77;;;;;;;13.42;96.61;101308.00;5052683;28;20033;-72
2022/09/24 01:41:17;;;;;;;20.38;13.95;;;;;;;13.42;96.82;101306.13;5052470;28;20494;-72
2022/09/24 01:43:44;;;;;;;17.60;13.82;;;;;;;13.43;96.34;101305.06;5052339;28;20029;-73
2022/09/24 01:46:11;;;;;;;21.05;13.25;;;;;;;13.41;96.89;101295.31;5051220;28;20510;-73
2022/09/24 01:48:37;;;;;;;18.70;13.25;;;;;;;13.40;97.20;101288.94;5052487;28;20423;-73
2022/09/24 01:51:10;;;;;;;16.65;12.88;;;;;;;13.50;97.16;101294.91;5052163;28;20035;-73
2022/09/24 01:53:42;;;;;;;20.13;13.45;;;;;;;13.48;96.53;101285.16;5052254;28;20040;-73
2022/09/24 01:56:24;;;;;;;18.23;12.75;;;;;;;13.54;96.43;101290.69;5052262;28;20029;-72
2022/09/24 01:59:02;;;;;;;18.08;13.55;;;;;;;13.48;96.79;101287.91;5052214;28;20111;-73
2022/09/24 02:01:36;;;;;;;18.55;13.10;;;;;;;13.46;96.85;101279.03;5052175;28;20033;-73
2022/09/24 02:04:14;;;;;;;18.80;12.30;;;;;;;13.42;97.07;101274.97;5052079;28;20029;-73
2022/09/24 02:06:49;;;;;;;20.85;14.40;;;;;;;13.46;97.08;101287.28;5051939;28;20040;-73
2022/09/24 02:09:35;;;;;;;23.13;14.73;;;;;;;13.51;96.50;101277.34;5052030;28;20025;-73
2022/09/24 02:12:10;;;;;;;23.35;13.52;;;;;;;13.41;97.42;101273.28;5052269;28;20328;-73
2022/09/24 02:14:43;;;;;;;19.23;14.20;;;;;;;13.43;96.94;101261.03;5051942;28;20127;-73
2022/09/24 02:17:09;;;;;;;19.63;15.45;;;;;;;13.53;97.14;101267.00;5051878;28;20396;-73
2022/09/24 02:19:38;;;;;;;23.02;15.32;;;;;;;13.50;97.23;101267.38;5051963;28;20060;-73
2022/09/24 02:22:08;;;;;;;20.20;14.30;;;;;;;13.43;97.52;101260.16;5051932;28;20032;-73
2022/09/24 02:24:38;;;;;;;21.05;15.52;;;;;;;13.40;97.40;101266.91;5051846;28;20391;-73
2022/09/24 02:27:03;;;;;;;23.70;15.05;;;;;;;13.42;97.36;101259.31;5051705;28;20078;-73
2022/09/24 02:29:28;;;;;;;21.63;15.83;;;;;;;13.36;98.49;101259.28;5051635;28;20021;-73
2022/09/24 02:31:56;;;;;;;21.47;15.27;;;;;;;13.35;98.08;101247.44;5051803;28;20439;-73
2022/09/24 02:34:28;;;;;;;23.67;15.25;;;;;;;13.35;98.98;101252.09;5051555;28;20404;-72
2022/09/24 02:37:02;;;;;;;24.42;15.02;;;;;;;13.36;98.33;101251.03;5033465;28;20124;-73
2022/09/24 02:39:27;;;;;;;23.42;16.17;;;;;;;13.34;98.40;101245.72;5051382;28;20037;-73
2022/09/24 02:41:53;;;;;;;19.30;14.87;;;;;;;13.31;98.13;101246.16;5033612;28;20040;-72
2022/09/24 02:44:19;;;;;;;21.63;16.20;;;;;;;13.37;97.94;101238.97;5051554;28;20036;-72
2022/09/24 02:46:45;;;;;;;25.77;17.43;;;;;;;13.42;98.56;101240.06;5051374;28;20032;-72
2022/09/24 02:49:13;;;;;;;23.63;17.08;;;;;;;13.43;98.13;101244.50;5033306;28;20041;-72
2022/09/24 02:51:39;;;;;;;22.20;17.08;;;;;;;13.39;98.33;101239.63;5051215;28;20044;-72
2022/09/24 02:54:05;;;;;;;28.75;17.80;;;;;;;13.41;98.58;101232.88;5051070;28;20029;-72
2022/09/24 02:56:31;;;;;;;22.97;16.37;;;;;;;13.42;98.13;101236.44;5050888;28;20053;-73
2022/09/24 02:58:57;;;;;;;25.80;18.08;;;;;;;13.41;98.43;101235.63;5051177;28;20040;-72
2022/09/24 03:01:23;;;;;;;23.20;16.70;;;;;;;13.44;98.90;101234.38;5050963;28;20488;-72
2022/09/24 03:03:49;;;;;;;24.23;18.17;;;;;;;13.35;98.79;101230.09;5051232;28;20021;-72
2022/09/24 03:06:14;;;;;;;27.90;18.77;;;;;;;13.37;98.68;101233.47;5051175;28;20041;-72
2022/09/24 03:08:41;;;;;;;27.13;18.57;;;;;;;13.35;98.99;101228.16;5051233;28;20027;-72
2022/09/24 03:11:07;;;;;;;25.45;19.85;;;;;;;13.36;99.10;101223.53;5033162;28;20067;-72
2022/09/24 03:13:33;;;;;;;27.08;19.70;;;;;;;13.39;98.21;101231.38;5050935;28;20036;-72
2022/09/24 03:15:58;;;;;;;26.57;19.23;;;;;;;13.33;98.92;101227.53;5050961;28;20036;-73
2022/09/24 03:18:24;;;;;;;25.20;19.97;;;;;;;13.40;98.31;101227.56;5050972;28;20503;-72
2022/09/24 03:21:05;;;;;;;27.00;20.00;;;;;;;13.35;98.38;101232.84;5051109;28;20344;-72
2022/09/24 03:23:31;;;;;;;31.05;21.15;;;;;;;13.32;98.67;101231.34;5050901;28;20036;-72
2022/09/24 03:25:56;;;;;;;24.33;19.13;;;;;;;13.33;99.51;101229.41;5051617;28;20036;-71
2022/09/24 03:28:22;;;;;;;24.77;19.00;;;;;;;13.31;99.24;101228.78;5051555;28;20025;-73
2022/09/24 03:31:00;;;;;;;29.27;21.23;;;;;;;13.36;98.87;101229.03;5050808;28;20033;-73
2022/09/24 03:33:40;;;;;;;27.80;20.60;;;;;;;13.29;99.30;101226.25;5050751;28;20036;-72
2022/09/24 03:36:15;;;;;;;31.58;20.23;;;;;;;13.34;98.70;101231.16;5050642;28;20033;-73
2022/09/24 03:38:42;;;;;;;28.38;20.80;;;;;;;13.27;99.39;101224.75;5032795;28;20139;-73
2022/09/24 03:41:09;;;;;;;29.30;20.88;;;;;;;13.33;99.15;101227.53;5050660;28;20062;-72
2022/09/24 03:43:35;;;;;;;27.00;20.75;;;;;;;13.28;99.49;101224.56;5032643;28;20045;-73
2022/09/24 03:46:02;;;;;;;27.60;21.45;;;;;;;13.38;99.07;101226.91;5050541;28;20385;-73
2022/09/24 03:48:29;;;;;;;29.40;22.05;;;;;;;13.34;99.29;101225.66;5050670;28;20047;-72
2022/09/24 03:50:55;;;;;;;28.77;21.42;;;;;;;13.45;98.47;101223.13;5050520;28;20106;-72
2022/09/24 03:53:21;;;;;;;28.48;21.33;;;;;;;13.39;98.68;101225.88;5050491;28;20031;-72
2022/09/24 03:55:52;;;;;;;30.55;22.15;;;;;;;13.32;98.22;101227.72;5050761;28;20061;-72
2022/09/24 03:58:17;;;;;;;27.25;21.45;;;;;;;13.34;99.13;101229.22;5050526;28;20045;-72
2022/09/24 04:00:42;;;;;;;29.30;21.87;;;;;;;13.38;98.87;101227.75;5050426;28;20032;-72
2022/09/24 04:03:08;;;;;;;27.40;21.53;;;;;;;13.37;99.14;101225.22;5050334;28;20095;-72
2022/09/24 04:05:34;;;;;;;30.10;21.83;;;;;;;13.32;98.83;101224.97;5050320;28;20021;-73
2022/09/24 04:08:01;;;;;;;25.95;20.17;;;;;;;13.40;99.12;101228.41;5050935;28;20391;-72
2022/09/24 04:10:27;;;;;;;28.08;21.10;;;;;;;13.41;99.01;101221.88;5054048;28;20108;-72
2022/09/24 04:12:52;;;;;;;27.00;20.23;;;;;;;13.38;99.06;101218.66;5053844;28;20116;-72
2022/09/24 04:15:18;;;;;;;26.20;21.00;;;;;;;13.41;98.97;101226.50;5053849;28;20033;-73
2022/09/24 04:17:55;;;;;;;29.10;20.23;;;;;;;13.40;99.39;101216.56;5053769;28;20044;-72
2022/09/24 04:20:22;;;;;;;25.48;18.67;;;;;;;13.39;99.59;101223.13;5053890;28;20116;-71
2022/09/24 04:22:49;;;;;;;26.48;19.63;;;;;;;13.42;99.31;101211.69;5053758;28;20510;-71
2022/09/24 04:25:15;;;;;;;26.73;18.17;;;;;;;13.40;99.25;101220.13;5053696;28;20021;-71
2022/09/24 04:27:41;;;;;;;22.37;17.47;;;;;;;13.44;99.52;101213.19;5053465;28;20368;-71
2022/09/24 04:30:07;;;;;;;23.70;17.42;;;;;;;13.39;99.32;101201.94;5053578;28;20377;-72
2022/09/24 04:32:33;;;;;;;22.60;18.43;;;;;;;13.49;98.93;101204.28;5053486;28;20089;-71
2022/09/24 04:34:58;;;;;;;21.30;17.00;;;;;;;13.51;99.31;101202.19;5053639;28;20033;-72
2022/09/24 04:37:23;;;;;;;19.97;16.00;;;;;;;13.48;99.27;101197.09;5053491;28;20036;-72
2022/09/24 04:39:49;;;;;;;21.60;14.60;;;;;;;13.42;99.42;101197.94;5053358;28;20112;-71
2022/09/24 04:42:15;;;;;;;17.87;14.10;;;;;;;13.45;98.96;101200.28;5053494;28;20025;-71
2022/09/24 04:44:42;;;;;;;18.42;14.25;;;;;;;13.45;99.09;101192.84;5054124;28;20111;-72
2022/09/24 04:47:07;;;;;;;17.80;13.70;;;;;;;13.41;99.61;101197.09;5053457;28;20041;-72
2022/09/24 04:49:32;;;;;;;16.57;13.27;;;;;;;13.40;99.86;101205.56;5053340;28;20107;-71
2022/09/24 04:51:58;;;;;;;18.00;13.37;;;;;;;13.44;99.52;101207.66;5053311;28;20520;-74
2022/09/24 04:54:24;;;;;;;15.50;12.87;;;;;;;13.50;99.06;101201.34;5053288;28;20025;-73
2022/09/24 04:56:49;;;;;;;18.97;13.77;;;;;;;13.47;98.98;101206.41;5053094;28;20285;-73
2022/09/24 04:59:15;;;;;;;17.80;13.93;;;;;;;13.54;98.88;101208.13;5053181;28;20025;-73
2022/09/24 05:01:40;;;;;;;19.37;14.27;;;;;;;13.53;98.46;101211.09;5053185;28;20041;-71
2022/09/24 05:04:05;;;;;;;15.63;12.83;;;;;;;13.48;99.15;101208.09;5053131;28;20021;-72
2022/09/24 05:06:31;;;;;;;16.27;13.33;;;;;;;13.48;99.28;101221.88;5053132;28;20128;-71
2022/09/24 05:08:57;;;;;;;18.67;13.63;;;;;;;13.48;99.38;101216.34;5052857;28;20238;-71
2022/09/24 05:11:22;;;;;;;17.83;13.40;;;;;;;13.50;99.31;101217.84;5052866;28;20033;-72
2022/09/24 05:13:48;;;;;;;18.67;14.33;;;;;;;13.51;98.72;101222.28;5035103;28;20483;-72
2022/09/24 05:16:13;;;;;;;21.53;13.77;;;;;;;13.49;98.60;101223.56;5052710;28;20037;-72
2022/09/24 05:18:38;;;;;;;18.40;14.17;;;;;;;13.44;99.54;101217.84;5052886;28;20033;-71
2022/09/24 05:21:04;;;;;;;16.17;13.40;;;;;;;13.57;99.15;101223.38;5052847;28;20124;-73
2022/09/24 05:23:29;;;;;;;18.03;13.17;;;;;;;13.47;99.22;101225.69;5052752;28;20485;-72
2022/09/24 05:28:39;;;;;;;20.58;14.20;;;;;;;13.53;99.21;101222.94;5052745;28;20059;-72
2022/09/24 05:31:04;;;;;;;18.50;14.27;;;;;;;13.47;99.03;101226.53;5052670;28;20100;-72
2022/09/24 05:33:30;;;;;;;16.73;13.23;;;;;;;13.45;99.34;101227.81;5052700;28;20138;-72
2022/09/24 05:35:56;;;;;;;23.43;14.50;;;;;;;13.54;99.84;101224.66;5052539;28;20021;-72
2022/09/24 05:38:22;;;;;;;;;;;;;;;13.56;99.13;101225.28;5053009;28;20040;-73
2022/09/24 05:40:47;;;;;;;18.92;13.52;;;;;;;13.51;99.31;101225.03;5052585;28;19917;-73
2022/09/24 05:43:13;;;;;;;21.43;13.83;;;;;;;13.53;99.10;101216.59;5034304;28;20121;-73
2022/09/24 05:45:40;;;;;;;20.75;14.63;;;;;;;13.53;99.77;101227.59;5034278;28;20052;-73
2022/09/24 05:48:05;;;;;;;;;;;;;;;13.62;99.33;101223.59;5053034;28;20040;-73
2022/09/24 05:50:34;;;;;;;21.75;13.77;;;;;;;13.57;99.04;101234.41;5052200;28;20302;-73
2022/09/24 05:53:00;;;;;;;18.95;13.35;;;;;;;13.49;99.50;101229.06;5052227;28;20033;-74
2022/09/24 05:55:26;;;;;;;23.52;13.88;;;;;;;13.51;99.48;101237.97;5052080;28;20499;-73
2022/09/24 05:57:52;;;;;;;22.73;15.20;;;;;;;13.51;100.00;101237.97;5052255;28;20040;-73
2022/09/24 06:00:17;;;;;;;24.97;15.33;;;;;;;13.52;99.47;101243.28;5052349;28;20032;-73
2022/09/24 06:02:42;;;;;;;21.53;14.80;;;;;;;13.47;99.65;101243.06;5052071;28;20115;-73
2022/09/24 06:05:08;;;;;;;22.97;14.50;;;;;;;13.59;99.80;101237.78;5052236;28;20032;-73
2022/09/24 06:07:34;;;;;;;24.40;15.47;;;;;;;13.51;99.72;101246.22;5051943;28;20032;-74
2022/09/24 06:09:59;;;;;;;23.83;16.37;;;;;;;13.44;100.00;101242.63;5052057;28;20292;-73
2022/09/24 06:12:25;;;;;;;22.03;14.83;;;;;;;13.43;99.83;101250.00;5052090;28;20495;-73
2022/09/24 06:14:52;;;;;;;24.58;15.07;;;;;;;13.45;100.00;101249.81;5052089;28;20032;-72
2022/09/24 06:17:18;;;;;;;;;;;;;;;13.52;100.00;101245.16;5052406;28;20048;-73
2022/09/24 06:19:43;;;;;;;20.35;14.30;;;;;;;13.65;100.00;101247.94;5052875;28;19912;-72
2022/09/24 06:22:08;;;;;;;19.93;15.10;;;;;;;13.60;99.29;101239.50;5052415;28;20041;-73
2022/09/24 06:24:34;;;;;;;26.27;15.17;;;;;;;13.59;99.89;101248.78;5051853;28;20028;-73
2022/09/24 06:26:59;;;;;;;21.10;15.53;;;;;;;13.55;100.00;101247.53;5052145;28;20039;-73
2022/09/24 06:29:25;;;;;;;18.70;15.27;;;;;;;13.67;99.59;101251.38;5051869;28;20037;-73
2022/09/24 06:31:52;;;;;;;24.43;16.03;;;;;;;13.74;99.39;101253.09;5051233;28;20029;-72
2022/09/24 06:34:18;;;;;;;21.48;15.15;;;;;;;13.69;99.56;101260.25;5051641;28;20438;-72
2022/09/24 06:36:43;;;;;;;24.23;17.03;;;;;;;13.66;99.82;101260.69;5051561;28;20086;-74
2022/09/24 06:39:08;;;;;;;23.77;16.80;;;;;;;13.60;100.00;101264.28;5052191;28;20456;-73
2022/09/24 06:41:34;;;;;;;23.37;16.03;;;;;;;13.64;100.00;101262.78;5051832;28;20083;-73
2022/09/24 06:43:59;;;;;;;23.80;16.60;;;;;;;13.67;99.83;101268.72;5051688;28;20024;-74
2022/09/24 06:46:25;;;;;;;19.43;15.83;;;;;;;13.75;99.77;101259.41;5051710;28;20192;-74
2022/09/24 06:48:52;;;;;;;25.47;17.13;;;;;;;13.72;99.80;101263.44;5051676;28;20029;-74
2022/09/24 06:51:18;;;;;;;24.42;18.10;;;;;;;13.76;99.87;101267.47;5051646;28;20048;-74
2022/09/24 06:53:43;;;;;;;22.53;16.53;;;;;;;13.79;99.34;101268.97;5051618;28;20032;-73
2022/09/24 06:56:09;;;;;;;28.17;17.70;;;;;;;13.79;99.54;101266.22;5051397;28;20506;-73
2022/09/24 06:58:34;;;;;;;27.03;18.73;;;;;;;13.74;100.00;101268.75;5051559;28;20511;-74
2022/09/24 07:01:01;;;;;;;23.80;18.13;;;;;;;13.75;100.00;101273.19;5051505;28;20507;-74
2022/09/24 07:03:32;;;;;;;26.02;18.83;;;;;;;13.75;99.93;101270.44;5051346;28;20035;-71
2022/09/24 07:06:05;;;;;;;24.95;18.98;;;;;;;13.79;100.00;101277.22;5051362;28;20087;-73
2022/09/24 07:08:31;;;;;;;28.73;19.58;;;;;;;13.82;100.00;101280.41;5051165;28;20082;-73
2022/09/24 07:10:57;;;;;;;27.87;19.27;;;;;;;13.76;100.00;101272.16;5051328;28;20033;-73
2022/09/24 07:13:23;;;;;;;32.30;19.17;;;;;;;13.80;100.00;101277.03;5051140;28;20025;-73
2022/09/24 07:15:50;;;;;;;23.47;19.10;;;;;;;13.88;100.00;101276.00;5050963;28;20410;-73
2022/09/24 07:18:17;;;;;;;28.75;18.77;;;;;;;13.88;100.00;101268.56;5050875;28;20063;-73
2022/09/24 07:20:42;;;;;;;24.55;19.90;;;;;;;13.86;100.00;101272.59;5051041;28;20528;-73
2022/09/24 07:23:10;;;;;;;28.27;19.70;;;;;;;13.94;100.00;101278.75;5051052;28;20121;-73
2022/09/24 07:25:36;;;;;;;25.65;18.92;;;;;;;13.89;100.00;101283.19;5032944;28;20037;-73
2022/09/24 07:28:09;;;;;;;26.23;18.67;;;;;;;13.91;100.00;101278.31;5050880;28;20078;-72
2022/09/24 07:30:35;;;;;;;23.77;17.42;;;;;;;13.92;100.00;101274.53;5050745;28;20041;-73
2022/09/24 07:33:01;;;;;;;20.83;16.95;;;;;;;13.98;100.00;101280.03;5051187;28;20029;-73
2022/09/24 07:35:27;;;;;;;22.95;17.55;;;;;;;13.99;100.00;101280.91;5050754;28;20036;-73
2022/09/24 07:38:01;;;;;;;24.90;16.00;;;;;;;13.93;100.00;101279.81;5050772;28;20040;-73
2022/09/24 07:40:28;;;;;;;23.80;17.10;;;;;;;13.94;100.00;101280.66;5050650;28;20850;-73
2022/09/24 07:42:54;;;;;;;;;;;;;;;13.93;100.00;101287.25;5032117;28;20025;-72
2022/09/24 07:45:20;;;;;;;22.25;14.85;;;;;;;13.97;100.00;101275.59;5032740;28;19919;-73
2022/09/24 07:47:46;;;;;;;24.50;16.23;;;;;;;13.95;100.00;101279.59;5050812;28;20480;-72
2022/09/24 07:50:12;;;;;;;22.07;14.70;;;;;;;13.97;100.00;101288.50;5032600;28;20036;-72
2022/09/24 07:52:38;;;;;;;24.25;15.57;;;;;;;13.99;100.00;101289.16;5050656;28;20504;-72
2022/09/24 07:55:03;;;;;;;19.57;13.67;;;;;;;14.01;100.00;101287.91;5032536;28;20060;-73
2022/09/24 07:57:29;;;;;;;24.43;16.57;;;;;;;14.03;100.00;101283.00;5032666;28;20032;-73
2022/09/24 07:59:54;;;;;;;29.43;16.53;;;;;;;14.04;100.00;101292.13;5050593;28;20542;-73
2022/09/24 08:02:20;;;;;;;24.93;16.10;;;;;;;14.07;100.00;101298.06;5032523;28;20392;-73
2022/09/24 08:04:45;;;;;;;26.40;15.67;;;;;;;14.16;100.00;101298.72;5050448;28;20392;-73
2022/09/24 08:07:12;;;;;;;23.37;14.10;;;;;;;14.21;100.00;101298.97;5050558;28;20041;-73
2022/09/24 08:09:37;;;;;;;18.00;12.30;;;;;;;14.25;100.00;101303.84;5032553;28;20032;-72
2022/09/24 08:12:03;;;;;;;16.47;11.67;;;;;;;14.29;100.00;101296.00;5050533;28;20033;-72
2022/09/24 08:14:29;;;;;;;15.50;11.10;;;;;;;14.23;100.00;101310.63;5050199;28;20111;-72
2022/09/24 08:16:54;;;;;;;15.17;11.37;;;;;;;14.25;100.00;101314.88;5050225;28;20476;-72
2022/09/24 08:19:19;;;;;;;16.53;11.40;;;;;;;14.21;99.80;101310.84;5050404;28;20047;-73
2022/09/24 08:21:47;;;;;;;19.00;12.97;;;;;;;14.14;99.92;101318.22;5050241;28;20029;-73
2022/09/24 08:24:13;;;;;;;22.27;14.15;;;;;;;14.11;100.00;101317.78;5050052;28;20112;-73
2022/09/24 08:26:38;;;;;;;19.17;14.03;;;;;;;14.11;100.00;101328.81;5049978;28;20112;-73
2022/09/24 08:29:03;;;;;;;20.47;14.63;;;;;;;14.18;100.00;101329.66;5050236;28;20334;-73
2022/09/24 08:31:30;;;;;;;20.40;14.00;;;;;;;14.17;100.00;101334.34;5032064;28;20117;-73
2022/09/24 08:33:56;;;;;;;20.73;14.63;;;;;;;14.16;100.00;101334.53;5050094;28;20049;-73
2022/09/24 08:36:21;;;;;;;20.58;14.20;;;;;;;14.19;100.00;101345.16;5050080;28;20095;-73
2022/09/24 08:38:47;;;;;;;17.73;13.63;;;;;;;14.19;100.00;101346.03;5050110;28;20126;-72
2022/09/24 08:41:12;;;;;;;17.30;13.77;;;;;;;14.22;100.00;101344.75;5050425;28;20065;-72
2022/09/24 08:47:21;;;;;;;19.90;14.20;;;;;;;14.18;100.00;101348.94;5032402;28;20477;-72
2022/09/24 08:47:23;;;;;;;18.17;13.45;;;;;;;14.21;100.00;101343.06;5050276;28;20037;-73
2022/09/24 08:50:05;;;;;;;17.13;12.15;;;;;;;14.17;100.00;101348.13;5032152;28;20092;-72
2022/09/24 08:52:44;;;;;;;14.38;11.45;;;;;;;14.18;100.00;101354.44;5050489;28;20025;-72
2022/09/24 08:55:21;;;;;;;16.92;12.32;;;;;;;14.18;100.00;101358.06;5052148;28;20017;-72
2022/09/24 08:57:59;;;;;;;18.88;13.50;;;;;;;14.22;100.00;101361.28;5054141;28;20415;-73
2022/09/24 09:00:30;;;;;;;15.07;11.38;;;;;;;14.19;100.00;101358.94;5035941;28;20388;-72
2022/09/24 09:03:23;;;;;;;19.25;12.48;;;;;;;14.27;100.00;101353.25;5053833;28;20033;-73
2022/09/24 09:05:49;;;;;;;17.75;12.10;;;;;;;14.20;100.00;101363.41;5053157;28;20052;-73
2022/09/24 09:08:50;;;;;;;16.27;11.53;;;;;;;14.14;100.00;101362.28;5053179;28;20045;-73
2022/09/24 09:11:19;;;;;;;13.77;7.55;;;;;;;14.12;100.00;101360.78;5015013;28;20051;-72
2022/09/24 09:13:56;;;;;;;11.60;7.57;;;;;;;14.05;100.00;101368.19;5052963;28;20472;-73
2022/09/24 09:16:25;;;;;;;;;;;;;;;14.05;100.00;101368.19;5053281;28;20502;-72
2022/09/24 09:18:54;;;;;;;12.75;4.38;;;;;;;14.05;99.66;101365.44;5053015;28;20003;-73
2022/09/24 09:21:25;;;;;;;13.93;3.47;;;;;;;13.98;99.48;101370.94;5053107;28;20495;-73
2022/09/24 09:23:54;;;;;;;14.43;3.65;;;;;;;13.94;99.77;101374.31;5053066;28;20033;-73
2022/09/24 09:26:20;;;;;;;16.83;3.40;;;;;;;13.96;100.00;101380.44;5053269;28;20037;-72
2022/09/24 09:28:47;;;;;;;11.10;2.90;;;;;;;13.90;99.53;101379.38;5053032;28;20031;-73
2022/09/24 09:31:38;;;;;;;12.98;2.65;;;;;;;13.92;99.31;101376.44;5035004;28;20028;-71
2022/09/24 09:34:19;;;;;;;12.90;2.45;;;;;;;13.89;99.85;101371.31;5052955;28;20040;-70
2022/09/24 09:36:45;;;;;;;13.35;2.10;;;;;;;13.91;99.39;101371.97;5052427;28;20056;-71
2022/09/24 09:39:53;;;;;;;14.33;2.73;;;;;;;13.86;98.89;101378.09;5052615;28;20068;-69
2022/09/24 09:42:46;;;;;;;23.95;3.25;;;;;;;13.87;99.02;101382.53;5038709;28;20033;-70
2022/09/24 09:45:28;;;;;;;17.98;2.90;;;;;;;13.97;98.95;101384.91;5049310;28;20068;-71
2022/09/24 09:47:56;;;;;;;8.73;2.03;;;;;;;13.89;98.07;101377.69;5052388;28;20488;-69
2022/09/24 09:50:44;;;;;;;10.85;2.50;;;;;;;13.97;98.47;101387.66;5052391;28;20032;-71
2022/09/24 09:53:20;;;;;;;;;;;;;;;14.01;99.08;101383.44;5035240;28;20324;-69
2022/09/24 09:55:55;;;;;;;13.10;2.95;;;;;;;13.88;98.01;101375.16;5052422;28;20345;-69
2022/09/24 09:58:26;;;;;;;6.63;2.10;;;;;;;13.92;99.29;101381.94;5052643;28;20118;-70
2022/09/24 10:01:01;;;;;;;6.63;1.80;;;;;;;13.81;98.61;101374.25;5034816;28;20470;-69
2022/09/24 10:03:30;;;;;;;11.88;2.95;;;;;;;13.78;99.16;101375.50;5052328;28;20076;-69
2022/09/24 10:05:58;;;;;;;8.30;2.13;;;;;;;13.78;98.91;101386.50;5051200;28;20029;-70
2022/09/24 10:08:24;;;;;;;6.97;1.63;;;;;;;13.74;98.97;101385.25;5052229;28;20060;-69
2022/09/24 10:10:57;;;;;;;6.57;2.17;;;;;;;13.72;99.43;101389.25;5034273;28;20036;-70
2022/09/24 10:13:24;;;;;;;7.25;2.08;;;;;;;13.69;99.42;101386.91;5052034;28;20039;-70
2022/09/24 10:15:51;;;;;;;;;;;;;;;13.72;99.39;101394.78;5052426;28;20079;-70
2022/09/24 10:18:33;;;;;;;6.38;1.38;;;;;;;13.68;99.14;101397.09;5052045;28;20376;-69
2022/09/24 10:21:02;;;;;;;9.48;1.70;;;;;;;13.69;99.47;101397.91;5052032;28;20435;-69
2022/09/24 10:23:40;;;;;;;8.65;2.63;;;;;;;13.79;99.36;101392.88;5051925;28;20112;-69
2022/09/24 10:26:07;;;;;;;8.23;2.95;;;;;;;13.73;99.56;101391.81;5051866;28;20378;-71
2022/09/24 10:31:21;;;;;;;;;;;;;;;13.78;99.80;101394.78;5052496;28;20047;-69
2022/09/24 10:33:51;;;;;;;5.55;1.70;;;;;;;13.77;99.55;101395.84;5051848;28;20399;-69
2022/09/24 10:36:22;;;;;;;4.43;1.42;;;;;;;13.82;99.54;101395.25;5051946;28;20061;-70
2022/09/24 10:38:49;;;;;;;7.80;1.90;;;;;;;13.78;99.16;101394.78;5051847;28;20040;-69
2022/09/24 10:41:26;;;;;;;10.35;2.33;;;;;;;13.77;99.39;101400.50;5051906;28;20033;-69
2022/09/24 10:43:56;;;;;;;8.93;2.38;;;;;;;13.73;99.36;101394.56;5033824;28;20400;-70
2022/09/24 10:46:33;;;;;;;11.63;2.30;;;;;;;13.79;99.27;101398.38;5051575;28;20110;-70
2022/09/24 10:49:03;;;;;;;3.97;1.48;;;;;;;13.76;99.02;101396.91;5051911;28;20094;-70
2022/09/24 10:51:31;;;;;;;13.10;2.95;;;;;;;13.83;99.26;101402.44;5033579;28;20131;-70
2022/09/24 10:54:20;;;;;;;11.88;2.40;;;;;;;13.87;98.99;101403.75;5051562;28;20155;-69
2022/09/24 10:56:50;;;;;;;6.75;2.10;;;;;;;13.86;99.09;101400.13;5051632;28;20025;-70
2022/09/24 10:59:38;;;;;;;5.40;1.83;;;;;;;13.92;99.47;101401.22;5051630;28;20017;-69
2022/09/24 11:02:27;;;;;;;13.27;2.30;;;;;;;13.88;99.25;101411.78;5051433;28;20039;-69
2022/09/24 11:05:07;;;;;;;17.48;2.72;;;;;;;13.99;99.75;101419.44;5051317;28;20036;-70
2022/09/24 11:07:53;;;;;;;10.27;2.08;;;;;;;13.97;99.45;101415.19;5051481;28;20044;-70
2022/09/24 11:10:31;;;;;;;16.77;2.15;;;;;;;13.97;98.99;101417.94;5051469;28;20029;-70
2022/09/24 11:13:11;;;;;;;;;;;;;;;14.00;99.15;101421.19;5051669;28;20090;-69
2022/09/24 11:16:09;;;;;;;10.82;2.95;;;;;;;13.94;99.02;101429.41;5051148;28;19913;-72
2022/09/24 11:18:53;;;;;;;5.07;1.55;;;;;;;13.93;99.60;101425.78;5050925;28;20036;-69
2022/09/24 11:21:21;;;;;;;9.90;2.60;;;;;;;13.97;100.00;101421.56;5051093;28;20033;-69
2022/09/24 11:23:49;;;;;;;6.93;1.90;;;;;;;13.93;99.75;101422.19;5051064;28;20105;-69
2022/09/24 11:26:17;;;;;;;6.35;2.33;;;;;;;13.95;99.61;101423.69;5050924;28;20048;-69
2022/09/24 11:28:57;;;;;;;12.80;2.35;;;;;;;13.96;100.00;101436.41;5050955;28;20500;-69
2022/09/24 11:31:44;;;;;;;8.27;1.98;;;;;;;13.89;99.70;101430.03;5051042;28;20069;-69